Time;durP1;ratioP1;P1;durP2;ratioP2;P2;SDS_P1;SDS_P2;PMS_P1;PMS_P2;Temp;Humidity;BMP_temperature;BMP_pressure;BME280_temperature;BME280_humidity;BME280_pressure;Samples;Min_cycle;Max_cycle;Signal;HPM_P1;HPM_P2
2021/06/21 00:00:50;;;;;;;4.47;3.10;;;;;;;;;;4972769;28;20196;-56
2021/06/21 00:03:16;;;;;;;3.97;2.93;;;;;;;;;;4981026;28;20180;-54
2021/06/21 00:05:42;;;;;;;4.03;3.63;;;;;;;;;;4974026;28;20184;-55
2021/06/21 00:08:10;;;;;;;4.27;3.00;;;;;;;;;;4987869;28;20238;-56
2021/06/21 00:10:36;;;;;;;3.63;3.33;;;;;;;;;;4992700;28;20180;-54
2021/06/21 00:13:02;;;;;;;3.57;3.27;;;;;;;;;;4993398;28;20186;-57
2021/06/21 00:15:29;;;;;;;3.33;3.00;;;;;;;;;;4993690;28;20185;-56
2021/06/21 00:17:55;;;;;;;5.70;3.40;;;;;;;;;;4992998;28;20589;-54
2021/06/21 00:20:22;;;;;;;3.97;3.40;;;;;;;;;;4993524;28;20207;-55
2021/06/21 00:22:48;;;;;;;4.40;3.30;;;;;;;;;;4993306;28;20698;-54
2021/06/21 00:25:15;;;;;;;8.57;4.00;;;;;;;;;;4993528;28;20266;-54
2021/06/21 00:27:41;;;;;;;5.07;3.33;;;;;;;;;;4992576;28;20245;-55
2021/06/21 00:30:10;;;;;;;4.23;3.83;;;;;;;;;;4993219;28;20630;-55
2021/06/21 00:32:36;;;;;;;4.37;3.70;;;;;;;;;;4992510;28;20191;-54
2021/06/21 00:35:02;;;;;;;3.90;3.60;;;;;;;;;;4992604;28;20191;-55
2021/06/21 00:37:28;;;;;;;4.97;4.47;;;;;;;;;;4993581;28;20389;-54
2021/06/21 00:39:54;;;;;;;5.73;4.33;;;;;;;;;;4992829;28;20203;-54
2021/06/21 00:42:21;;;;;;;6.67;4.70;;;;;;;;;;4993298;28;20179;-54
2021/06/21 00:44:47;;;;;;;4.93;4.53;;;;;;;;;;4992834;28;20198;-54
2021/06/21 00:47:13;;;;;;;4.63;3.93;;;;;;;;;;4993550;28;20203;-54
2021/06/21 00:49:40;;;;;;;4.67;4.27;;;;;;;;;;4992679;28;20199;-56
2021/06/21 00:52:07;;;;;;;4.77;4.27;;;;;;;;;;4992947;28;20191;-55
2021/06/21 00:54:33;;;;;;;4.90;4.50;;;;;;;;;;4992953;28;20613;-54
2021/06/21 00:56:59;;;;;;;3.80;3.50;;;;;;;;;;4975174;28;20638;-55
2021/06/21 00:59:25;;;;;;;5.03;4.57;;;;;;;;;;4992544;28;20588;-54
2021/06/21 01:01:51;;;;;;;5.27;3.83;;;;;;;;;;4993572;28;20174;-57
2021/06/21 01:04:17;;;;;;;4.40;4.00;;;;;;;;;;4991787;28;20186;-57
2021/06/21 01:06:43;;;;;;;4.33;3.93;;;;;;;;;;4992249;28;20252;-54
2021/06/21 01:09:10;;;;;;;4.40;4.10;;;;;;;;;;4991581;28;20678;-55
2021/06/21 01:11:54;;;;;;;4.30;3.90;;;;;;;;;;4993539;28;20200;-54
2021/06/21 01:14:36;;;;;;;6.97;4.20;;;;;;;;;;4992267;28;20895;-55
2021/06/21 01:17:08;;;;;;;5.53;3.93;;;;;;;;;;4992947;28;20241;-55
2021/06/21 01:19:37;;;;;;;4.50;4.07;;;;;;;;;;4991871;28;20200;-54
2021/06/21 01:22:09;;;;;;;4.90;4.50;;;;;;;;;;4993274;28;20191;-55
2021/06/21 01:24:54;;;;;;;4.87;3.93;;;;;;;;;;4991650;28;20190;-54
2021/06/21 01:27:20;;;;;;;4.37;3.60;;;;;;;;;;4988042;28;20183;-54
2021/06/21 01:30:05;;;;;;;3.60;3.30;;;;;;;;;;4992073;28;20187;-56
2021/06/21 01:32:40;;;;;;;4.00;2.97;;;;;;;;;;4992884;28;20180;-55
2021/06/21 01:35:07;;;;;;;4.10;3.70;;;;;;;;;;4991885;28;20201;-55
2021/06/21 01:37:34;;;;;;;3.50;3.30;;;;;;;;;;4984706;28;20194;-55
2021/06/21 01:40:01;;;;;;;3.37;3.07;;;;;;;;;;4992338;28;20688;-55
2021/06/21 01:42:28;;;;;;;3.60;3.30;;;;;;;;;;4992024;28;20179;-56
2021/06/21 01:45:01;;;;;;;3.83;3.50;;;;;;;;;;4990763;28;20267;-55
2021/06/21 01:47:29;;;;;;;4.30;3.90;;;;;;;;;;4983111;28;20241;-54
2021/06/21 01:49:56;;;;;;;4.07;2.70;;;;;;;;;;4989100;28;20190;-54
2021/06/21 01:52:22;;;;;;;3.60;3.27;;;;;;;;;;4992283;28;20183;-56
2021/06/21 01:54:53;;;;;;;3.70;3.40;;;;;;;;;;4992567;28;20273;-55
2021/06/21 01:57:24;;;;;;;3.97;3.20;;;;;;;;;;4993488;28;20218;-61
2021/06/21 01:59:51;;;;;;;4.83;4.33;;;;;;;;;;4993581;28;20208;-59
2021/06/21 02:02:18;;;;;;;5.97;5.37;;;;;;;;;;4994741;28;20255;-61
2021/06/21 02:04:46;;;;;;;5.13;4.30;;;;;;;;;;4980724;28;20525;-57
2021/06/21 02:07:12;;;;;;;4.83;4.43;;;;;;;;;;5008573;28;20250;-55
2021/06/21 02:09:39;;;;;;;4.93;4.37;;;;;;;;;;4991865;28;20801;-59
2021/06/21 02:12:06;;;;;;;4.90;4.50;;;;;;;;;;4992887;28;20175;-55
2021/06/21 02:14:32;;;;;;;5.03;4.40;;;;;;;;;;4992089;28;20187;-55
2021/06/21 02:16:59;;;;;;;5.70;4.50;;;;;;;;;;4992678;28;20262;-57
2021/06/21 02:19:26;;;;;;;5.63;4.23;;;;;;;;;;4991272;28;20680;-57
2021/06/21 02:21:52;;;;;;;4.43;4.03;;;;;;;;;;4975550;28;20187;-55
2021/06/21 02:24:19;;;;;;;4.87;3.87;;;;;;;;;;4991558;28;20653;-58
2021/06/21 02:26:46;;;;;;;4.67;3.73;;;;;;;;;;4990454;28;20227;-55
2021/06/21 02:29:12;;;;;;;4.27;3.63;;;;;;;;;;4991027;28;20188;-55
2021/06/21 02:31:38;;;;;;;4.87;4.27;;;;;;;;;;4992284;28;20248;-57
2021/06/21 02:34:04;;;;;;;5.00;4.60;;;;;;;;;;4991617;28;20190;-57
2021/06/21 02:36:31;;;;;;;4.17;3.77;;;;;;;;;;4993203;28;20186;-56
2021/06/21 02:38:59;;;;;;;4.13;3.57;;;;;;;;;;4992078;28;20962;-57
2021/06/21 02:41:25;;;;;;;4.03;3.73;;;;;;;;;;4973666;28;20627;-56
2021/06/21 02:43:51;;;;;;;3.97;3.67;;;;;;;;;;4989576;28;20181;-55
2021/06/21 02:46:17;;;;;;;4.33;4.00;;;;;;;;;;4975553;28;20198;-56
2021/06/21 02:48:43;;;;;;;4.67;4.13;;;;;;;;;;4991894;28;20642;-59
2021/06/21 02:51:13;;;;;;;5.80;4.17;;;;;;;;;;4991282;28;20200;-56
2021/06/21 02:53:41;;;;;;;4.70;4.20;;;;;;;;;;4973774;28;20193;-59
2021/06/21 02:56:07;;;;;;;4.23;3.50;;;;;;;;;;4992485;28;20682;-58
2021/06/21 02:58:39;;;;;;;5.10;4.30;;;;;;;;;;4992012;28;20678;-59
2021/06/21 03:01:06;;;;;;;4.30;4.00;;;;;;;;;;4993493;28;20171;-58
2021/06/21 03:03:35;;;;;;;4.50;3.90;;;;;;;;;;4991439;28;20198;-57
2021/06/21 03:06:02;;;;;;;4.23;3.83;;;;;;;;;;4991792;28;20643;-55
2021/06/21 03:08:29;;;;;;;4.80;4.33;;;;;;;;;;4981921;28;20223;-57
2021/06/21 03:10:55;;;;;;;3.90;3.60;;;;;;;;;;4971861;28;20189;-57
2021/06/21 03:13:22;;;;;;;4.80;3.37;;;;;;;;;;4970597;28;20200;-55
2021/06/21 03:15:50;;;;;;;3.97;3.23;;;;;;;;;;4973226;28;20188;-56
2021/06/21 03:18:18;;;;;;;3.70;3.30;;;;;;;;;;4975449;28;20703;-55
2021/06/21 03:20:44;;;;;;;3.80;3.50;;;;;;;;;;4956395;28;20212;-55
2021/06/21 03:23:11;;;;;;;3.80;3.40;;;;;;;;;;4975376;28;20181;-54
2021/06/21 03:25:37;;;;;;;3.70;3.37;;;;;;;;;;4966036;28;20193;-55
2021/06/21 03:28:07;;;;;;;4.70;4.23;;;;;;;;;;4969346;28;20178;-54
2021/06/21 03:30:33;;;;;;;3.50;3.20;;;;;;;;;;4974896;28;21116;-56
2021/06/21 03:33:00;;;;;;;3.77;3.03;;;;;;;;;;4957641;28;20203;-58
2021/06/21 03:35:28;;;;;;;3.50;3.20;;;;;;;;;;4957101;28;20259;-54
2021/06/21 03:37:54;;;;;;;3.67;3.37;;;;;;;;;;4976002;28;20625;-58
2021/06/21 03:40:20;;;;;;;3.60;3.30;;;;;;;;;;4957515;28;20208;-54
2021/06/21 03:42:46;;;;;;;3.90;3.57;;;;;;;;;;4966088;28;20183;-54
2021/06/21 03:45:13;;;;;;;3.03;2.73;;;;;;;;;;4974541;28;20192;-55
2021/06/21 03:47:40;;;;;;;4.53;4.13;;;;;;;;;;4955694;28;20181;-58
2021/06/21 03:50:07;;;;;;;3.03;2.83;;;;;;;;;;4971081;28;20184;-57
2021/06/21 03:52:33;;;;;;;3.30;3.10;;;;;;;;;;4967601;28;20189;-57
2021/06/21 03:55:09;;;;;;;3.30;3.10;;;;;;;;;;4974203;28;20254;-54
2021/06/21 03:57:39;;;;;;;3.83;3.43;;;;;;;;;;4983669;28;20186;-55
2021/06/21 04:00:07;;;;;;;3.23;3.03;;;;;;;;;;4956858;28;20645;-54
2021/06/21 04:02:33;;;;;;;3.20;3.00;;;;;;;;;;4955940;29;20264;-55
2021/06/21 04:04:59;;;;;;;4.30;3.90;;;;;;;;;;4971996;28;20268;-54
2021/06/21 04:07:25;;;;;;;4.47;4.07;;;;;;;;;;4973892;28;20293;-55
2021/06/21 04:09:51;;;;;;;3.57;3.30;;;;;;;;;;4973459;28;20225;-54
2021/06/21 04:12:23;;;;;;;4.43;4.03;;;;;;;;;;4971158;28;20781;-54
2021/06/21 04:14:49;;;;;;;3.80;3.50;;;;;;;;;;4973779;28;20205;-55
2021/06/21 04:17:15;;;;;;;3.67;3.40;;;;;;;;;;4973019;28;20212;-56
2021/06/21 04:19:41;;;;;;;3.87;3.47;;;;;;;;;;4971814;28;20207;-54
2021/06/21 04:22:07;;;;;;;3.30;3.00;;;;;;;;;;4972932;28;20318;-54
2021/06/21 04:24:33;;;;;;;3.60;3.30;;;;;;;;;;4972636;28;20214;-54
2021/06/21 04:26:59;;;;;;;3.50;3.30;;;;;;;;;;4971716;28;20184;-56
2021/06/21 04:29:25;;;;;;;3.33;3.13;;;;;;;;;;4971193;28;20194;-58
2021/06/21 04:31:51;;;;;;;3.47;3.17;;;;;;;;;;4972473;28;20655;-54
2021/06/21 04:34:17;;;;;;;3.33;3.13;;;;;;;;;;4970503;28;20198;-55
2021/06/21 04:36:44;;;;;;;3.23;3.00;;;;;;;;;;4946038;28;20208;-54
2021/06/21 04:39:10;;;;;;;3.37;3.17;;;;;;;;;;4959762;28;20597;-54
2021/06/21 04:41:36;;;;;;;3.27;3.07;;;;;;;;;;4973108;28;20179;-54
2021/06/21 04:44:02;;;;;;;3.73;3.53;;;;;;;;;;4972248;28;20524;-55
2021/06/21 04:46:29;;;;;;;3.63;2.80;;;;;;;;;;4972104;28;20566;-55
2021/06/21 04:48:56;;;;;;;3.47;3.17;;;;;;;;;;4972342;28;20261;-54
2021/06/21 04:51:22;;;;;;;3.43;3.13;;;;;;;;;;4956192;28;20170;-53
2021/06/21 04:53:48;;;;;;;3.33;3.03;;;;;;;;;;4981151;28;20185;-54
2021/06/21 04:56:15;;;;;;;3.50;3.20;;;;;;;;;;4970920;28;20176;-56
2021/06/21 04:58:42;;;;;;;2.80;2.60;;;;;;;;;;4972918;28;20189;-54
2021/06/21 05:01:08;;;;;;;2.93;2.73;;;;;;;;;;4974777;28;20178;-54
2021/06/21 05:03:36;;;;;;;2.83;2.63;;;;;;;;;;4973373;28;20265;-56
2021/06/21 05:06:03;;;;;;;3.57;2.70;;;;;;;;;;4972100;28;20177;-54
2021/06/21 05:08:29;;;;;;;3.03;2.83;;;;;;;;;;4989604;28;20682;-55
2021/06/21 05:10:55;;;;;;;2.70;2.50;;;;;;;;;;4994934;28;20220;-53
2021/06/21 05:13:21;;;;;;;3.07;2.87;;;;;;;;;;4991260;28;20259;-55
2021/06/21 05:15:47;;;;;;;3.27;3.00;;;;;;;;;;4992217;28;20171;-54
2021/06/21 05:18:13;;;;;;;3.47;3.10;;;;;;;;;;4992551;28;20167;-56
2021/06/21 05:20:39;;;;;;;3.50;3.20;;;;;;;;;;4991844;28;20207;-58
2021/06/21 05:23:05;;;;;;;3.47;3.27;;;;;;;;;;4992655;28;20308;-54
2021/06/21 05:25:33;;;;;;;3.93;3.57;;;;;;;;;;4992412;28;20179;-56
2021/06/21 05:27:59;;;;;;;3.40;3.20;;;;;;;;;;4991928;28;20175;-54
2021/06/21 05:30:25;;;;;;;4.33;3.40;;;;;;;;;;4992669;28;20186;-54
2021/06/21 05:32:51;;;;;;;4.00;3.70;;;;;;;;;;5004314;28;20241;-56
2021/06/21 05:35:17;;;;;;;3.90;3.60;;;;;;;;;;4991602;28;20186;-55
2021/06/21 05:37:44;;;;;;;4.80;4.40;;;;;;;;;;4992131;28;20191;-53
2021/06/21 05:40:10;;;;;;;4.40;4.10;;;;;;;;;;5000248;28;20657;-55
2021/06/21 05:42:36;;;;;;;5.10;4.63;;;;;;;;;;4989502;28;20207;-56
2021/06/21 05:45:02;;;;;;;5.53;5.20;;;;;;;;;;4992184;28;20179;-54
2021/06/21 05:47:28;;;;;;;5.10;4.70;;;;;;;;;;4992683;28;20654;-55
2021/06/21 05:49:54;;;;;;;5.10;4.70;;;;;;;;;;4990933;28;20183;-55
2021/06/21 05:52:20;;;;;;;5.87;5.47;;;;;;;;;;4990806;28;20190;-56
2021/06/21 05:54:46;;;;;;;6.87;6.37;;;;;;;;;;5000428;28;20238;-57
2021/06/21 05:57:12;;;;;;;5.30;4.90;;;;;;;;;;4990844;28;20590;-54
2021/06/21 05:59:38;;;;;;;5.17;4.77;;;;;;;;;;4991710;28;20681;-54
2021/06/21 06:02:05;;;;;;;6.00;5.50;;;;;;;;;;4991872;28;20589;-54
2021/06/21 06:04:31;;;;;;;5.57;5.17;;;;;;;;;;5005962;28;20210;-54
2021/06/21 06:06:57;;;;;;;6.47;6.07;;;;;;;;;;4990125;28;20199;-57
2021/06/21 06:09:23;;;;;;;6.00;5.50;;;;;;;;;;4978605;28;20266;-55
2021/06/21 06:11:49;;;;;;;6.20;5.80;;;;;;;;;;4979961;28;20175;-54
2021/06/21 06:14:15;;;;;;;5.20;4.80;;;;;;;;;;4956313;28;20191;-55
2021/06/21 06:16:41;;;;;;;5.00;4.70;;;;;;;;;;4973909;28;20191;-54
2021/06/21 06:19:07;;;;;;;5.63;5.23;;;;;;;;;;4970274;28;20211;-55
2021/06/21 06:21:33;;;;;;;6.37;5.70;;;;;;;;;;4971012;28;20535;-54
2021/06/21 06:24:00;;;;;;;6.80;6.30;;;;;;;;;;4971264;28;20294;-56
2021/06/21 06:26:26;;;;;;;6.17;5.77;;;;;;;;;;4975491;28;20513;-55
2021/06/21 06:28:52;;;;;;;6.30;5.70;;;;;;;;;;4974243;28;20173;-55
2021/06/21 06:31:18;;;;;;;6.23;5.63;;;;;;;;;;4959916;28;20176;-54
2021/06/21 06:33:44;;;;;;;6.10;5.60;;;;;;;;;;4983656;28;20207;-54
2021/06/21 06:36:10;;;;;;;6.57;6.07;;;;;;;;;;4977591;28;20175;-55
2021/06/21 06:38:36;;;;;;;6.87;6.37;;;;;;;;;;4973053;28;20195;-57
2021/06/21 06:41:05;;;;;;;6.50;5.90;;;;;;;;;;4976956;28;20215;-55
2021/06/21 06:43:31;;;;;;;6.10;5.57;;;;;;;;;;4974690;28;20645;-55
2021/06/21 06:45:57;;;;;;;4.67;4.37;;;;;;;;;;4977264;28;20184;-55
2021/06/21 06:48:23;;;;;;;6.37;5.80;;;;;;;;;;4972920;28;20575;-54
2021/06/21 06:50:49;;;;;;;4.90;4.60;;;;;;;;;;4955160;28;20757;-55
2021/06/21 06:53:25;;;;;;;6.40;5.90;;;;;;;;;;4970012;28;20184;-55
2021/06/21 06:58:35;;;;;;;4.70;4.40;;;;;;;;;;4976674;28;20201;-56
2021/06/21 07:01:01;;;;;;;4.90;4.50;;;;;;;;;;4970933;28;20208;-56
2021/06/21 07:03:27;;;;;;;5.60;5.17;;;;;;;;;;4970289;28;20760;-55
2021/06/21 07:05:53;;;;;;;5.53;5.00;;;;;;;;;;4974431;28;20190;-57
2021/06/21 07:08:19;;;;;;;5.70;5.30;;;;;;;;;;4958663;28;20228;-57
2021/06/21 07:10:45;;;;;;;5.37;4.87;;;;;;;;;;4978766;28;20188;-56
2021/06/21 07:13:11;;;;;;;5.57;5.03;;;;;;;;;;4977047;28;20230;-56
2021/06/21 07:15:37;;;;;;;6.93;6.23;;;;;;;;;;4977203;28;20192;-56
2021/06/21 07:18:03;;;;;;;6.10;5.60;;;;;;;;;;4970710;28;20193;-57
2021/06/21 07:20:29;;;;;;;5.27;4.87;;;;;;;;;;4974271;28;20208;-56
2021/06/21 07:22:56;;;;;;;6.53;6.03;;;;;;;;;;4972231;28;20194;-56
2021/06/21 07:25:22;;;;;;;6.77;6.27;;;;;;;;;;4978414;28;20604;-57
2021/06/21 07:27:48;;;;;;;6.97;6.37;;;;;;;;;;4952742;28;21135;-59
2021/06/21 07:30:14;;;;;;;7.87;7.27;;;;;;;;;;4970903;28;20269;-56
2021/06/21 07:32:40;;;;;;;6.97;6.37;;;;;;;;;;4974939;28;20524;-55
2021/06/21 07:35:06;;;;;;;7.70;7.10;;;;;;;;;;4969642;28;20647;-55
2021/06/21 07:37:32;;;;;;;6.57;5.87;;;;;;;;;;4977743;28;20189;-55
2021/06/21 07:39:58;;;;;;;7.03;6.53;;;;;;;;;;4970355;28;20368;-58
2021/06/21 07:42:24;;;;;;;8.27;7.57;;;;;;;;;;4970219;28;20193;-55
2021/06/21 07:44:50;;;;;;;6.83;6.33;;;;;;;;;;4970247;28;20260;-57
2021/06/21 07:47:16;;;;;;;7.63;6.93;;;;;;;;;;4969748;28;20319;-55
2021/06/21 07:49:43;;;;;;;7.77;7.17;;;;;;;;;;4969147;28;20977;-55
2021/06/21 07:52:09;;;;;;;7.97;6.47;;;;;;;;;;4953848;28;20188;-58
2021/06/21 07:54:35;;;;;;;8.03;7.23;;;;;;;;;;4937867;28;20188;-55
2021/06/21 07:57:01;;;;;;;7.80;7.00;;;;;;;;;;4952579;28;20191;-58
2021/06/21 07:59:27;;;;;;;7.13;6.43;;;;;;;;;;4970607;28;20192;-56
2021/06/21 08:01:53;;;;;;;7.00;6.37;;;;;;;;;;4970452;28;20187;-55
2021/06/21 08:04:19;;;;;;;7.27;6.57;;;;;;;;;;4973652;28;20200;-58
2021/06/21 08:06:45;;;;;;;7.10;5.93;;;;;;;;;;4974335;28;20202;-55
2021/06/21 08:09:11;;;;;;;8.17;6.83;;;;;;;;;;4984317;28;20241;-57
2021/06/21 08:11:37;;;;;;;6.37;5.87;;;;;;;;;;4993685;28;20178;-56
2021/06/21 08:14:03;;;;;;;8.07;6.70;;;;;;;;;;4980596;28;20689;-57
2021/06/21 08:16:29;;;;;;;7.70;6.60;;;;;;;;;;4973418;28;20192;-57
2021/06/21 08:18:55;;;;;;;7.20;6.63;;;;;;;;;;4977435;28;20179;-55
2021/06/21 08:21:22;;;;;;;7.23;6.63;;;;;;;;;;4975486;28;20191;-57
2021/06/21 08:23:48;;;;;;;7.23;6.63;;;;;;;;;;4975800;28;20180;-55
2021/06/21 08:26:14;;;;;;;9.17;7.30;;;;;;;;;;4978216;28;20276;-57
2021/06/21 08:28:40;;;;;;;8.00;7.30;;;;;;;;;;4978082;28;20198;-57
2021/06/21 08:31:06;;;;;;;8.83;7.87;;;;;;;;;;4982494;28;20278;-56
2021/06/21 08:33:32;;;;;;;7.73;7.03;;;;;;;;;;4973821;28;20219;-55
2021/06/21 08:35:58;;;;;;;9.10;8.23;;;;;;;;;;4976431;28;20179;-55
2021/06/21 08:38:24;;;;;;;8.67;7.83;;;;;;;;;;4958392;28;20191;-57
2021/06/21 08:40:50;;;;;;;9.00;8.20;;;;;;;;;;4979517;28;20282;-56
2021/06/21 08:43:16;;;;;;;11.77;8.40;;;;;;;;;;4972530;28;20670;-57
2021/06/21 08:45:44;;;;;;;8.07;7.27;;;;;;;;;;4972889;28;20180;-56
2021/06/21 08:48:11;;;;;;;10.50;9.53;;;;;;;;;;4973471;28;20239;-56
2021/06/21 08:50:38;;;;;;;11.07;9.97;;;;;;;;;;4973722;28;20242;-57
2021/06/21 08:53:04;;;;;;;8.97;8.20;;;;;;;;;;4982117;28;20575;-55
2021/06/21 08:55:30;;;;;;;8.67;7.87;;;;;;;;;;4977138;28;20212;-57
2021/06/21 08:57:56;;;;;;;10.87;8.20;;;;;;;;;;4981378;28;20192;-55
2021/06/21 09:00:23;;;;;;;10.10;9.20;;;;;;;;;;4983906;28;20302;-56
2021/06/21 09:02:49;;;;;;;8.77;8.07;;;;;;;;;;4976311;28;20658;-56
2021/06/21 09:05:16;;;;;;;8.10;7.37;;;;;;;;;;4974484;28;20703;-57
2021/06/21 09:07:42;;;;;;;8.30;6.93;;;;;;;;;;5003513;28;20222;-57
2021/06/21 09:10:22;;;;;;;6.93;6.23;;;;;;;;;;4996133;28;20241;-57
2021/06/21 09:13:00;;;;;;;6.50;5.90;;;;;;;;;;4986586;28;20240;-56
2021/06/21 09:15:29;;;;;;;6.73;5.90;;;;;;;;;;5001661;28;20655;-56
2021/06/21 09:17:57;;;;;;;7.30;6.60;;;;;;;;;;5001347;28;20175;-62
2021/06/21 09:20:23;;;;;;;7.10;6.50;;;;;;;;;;5014325;28;20661;-58
2021/06/21 09:22:56;;;;;;;9.33;7.43;;;;;;;;;;4998709;28;20229;-57
2021/06/21 09:25:23;;;;;;;7.10;6.23;;;;;;;;;;5005286;28;20290;-59
2021/06/21 09:28:01;;;;;;;8.17;7.47;;;;;;;;;;5002864;28;20179;-57
2021/06/21 09:30:27;;;;;;;8.80;8.00;;;;;;;;;;4994964;28;20178;-58
2021/06/21 09:32:55;;;;;;;9.33;8.40;;;;;;;;;;4996272;28;20183;-57
2021/06/21 09:35:27;;;;;;;7.60;7.00;;;;;;;;;;4995633;28;20236;-59
2021/06/21 09:37:53;;;;;;;8.60;6.53;;;;;;;;;;4995087;28;20187;-58
2021/06/21 09:40:45;;;;;;;6.97;6.47;;;;;;;;;;5000745;28;20290;-57
2021/06/21 09:43:17;;;;;;;5.93;5.43;;;;;;;;;;4976943;28;20240;-57
2021/06/21 09:46:02;;;;;;;5.80;5.30;;;;;;;;;;5004711;28;20218;-59
2021/06/21 09:48:32;;;;;;;5.53;5.10;;;;;;;;;;4993641;28;20233;-57
2021/06/21 09:50:58;;;;;;;5.53;5.13;;;;;;;;;;4994196;28;20214;-56
2021/06/21 09:53:24;;;;;;;4.93;4.50;;;;;;;;;;4999740;28;20179;-57
2021/06/21 09:55:50;;;;;;;3.53;3.33;;;;;;;;;;4982608;28;20540;-58
2021/06/21 09:58:21;;;;;;;3.63;3.33;;;;;;;;;;4993452;28;20191;-58
2021/06/21 10:00:50;;;;;;;3.93;3.63;;;;;;;;;;4976777;28;20204;-57
2021/06/21 10:03:18;;;;;;;3.30;3.00;;;;;;;;;;4999665;28;20266;-58
2021/06/21 10:05:47;;;;;;;3.30;3.10;;;;;;;;;;4993066;28;20180;-58
2021/06/21 10:08:14;;;;;;;3.23;3.00;;;;;;;;;;4996981;28;20574;-57
2021/06/21 10:10:41;;;;;;;3.70;3.40;;;;;;;;;;4993617;28;20194;-57
2021/06/21 10:13:07;;;;;;;2.90;2.70;;;;;;;;;;4991779;28;20253;-59
2021/06/21 10:15:35;;;;;;;2.80;2.60;;;;;;;;;;4993206;28;20187;-56
2021/06/21 10:18:01;;;;;;;2.73;2.53;;;;;;;;;;4993665;28;20543;-58
2021/06/21 10:20:27;;;;;;;2.47;2.27;;;;;;;;;;4995140;28;20238;-58
2021/06/21 10:22:55;;;;;;;2.57;2.23;;;;;;;;;;5001845;28;20187;-58
2021/06/21 10:25:21;;;;;;;3.00;1.97;;;;;;;;;;5000930;28;20210;-59
2021/06/21 10:27:48;;;;;;;2.17;1.70;;;;;;;;;;4997402;28;20187;-56
2021/06/21 10:30:19;;;;;;;1.63;1.53;;;;;;;;;;4992431;28;20187;-58
2021/06/21 10:32:47;;;;;;;2.13;1.93;;;;;;;;;;4991515;28;20199;-58
2021/06/21 10:35:13;;;;;;;1.60;1.50;;;;;;;;;;4993400;28;20179;-59
2021/06/21 10:37:40;;;;;;;2.07;1.50;;;;;;;;;;4992881;28;20178;-58
2021/06/21 10:40:10;;;;;;;1.50;1.40;;;;;;;;;;4993085;28;20218;-57
2021/06/21 10:42:42;;;;;;;1.53;1.30;;;;;;;;;;4997172;28;20189;-59
2021/06/21 10:45:16;;;;;;;1.60;1.50;;;;;;;;;;4976427;28;20179;-58
2021/06/21 10:47:43;;;;;;;1.30;1.20;;;;;;;;;;4984239;28;20207;-61
2021/06/21 10:50:09;;;;;;;1.33;1.23;;;;;;;;;;4992807;28;20629;-58
2021/06/21 10:52:39;;;;;;;1.30;1.20;;;;;;;;;;4984348;28;20192;-58
2021/06/21 10:57:51;;;;;;;1.53;1.40;;;;;;;;;;4997105;28;20191;-58
2021/06/21 11:00:18;;;;;;;3.70;1.80;;;;;;;;;;4992934;28;20300;-59
2021/06/21 11:02:44;;;;;;;1.60;1.50;;;;;;;;;;4992336;28;20275;-59
2021/06/21 11:05:10;;;;;;;3.43;1.77;;;;;;;;;;4995864;28;20266;-58
2021/06/21 11:07:37;;;;;;;2.23;1.57;;;;;;;;;;4996367;28;20208;-59
2021/06/21 11:10:04;;;;;;;1.50;1.40;;;;;;;;;;5006182;28;20242;-58
2021/06/21 11:12:30;;;;;;;2.37;1.90;;;;;;;;;;4997310;28;20606;-58
2021/06/21 11:15:09;;;;;;;2.47;1.97;;;;;;;;;;5002219;28;20183;-61
2021/06/21 11:17:44;;;;;;;3.23;2.83;;;;;;;;;;4997841;28;20182;-59
2021/06/21 11:20:28;;;;;;;3.97;3.00;;;;;;;;;;5008606;28;20579;-59
2021/06/21 11:22:59;;;;;;;4.17;3.30;;;;;;;;;;4994753;28;20205;-58
2021/06/21 11:25:30;;;;;;;2.47;2.27;;;;;;;;;;5001119;28;20524;-58
2021/06/21 11:27:56;;;;;;;2.70;2.30;;;;;;;;;;4989223;28;20190;-58
2021/06/21 11:30:27;;;;;;;2.30;2.00;;;;;;;;;;4994550;28;20229;-60
2021/06/21 11:32:57;;;;;;;2.20;1.83;;;;;;;;;;4994273;28;20168;-57
2021/06/21 11:35:42;;;;;;;1.80;1.70;;;;;;;;;;4997324;28;20184;-59
2021/06/21 11:38:19;;;;;;;2.00;1.80;;;;;;;;;;4995538;28;20626;-59
2021/06/21 11:40:45;;;;;;;3.00;1.80;;;;;;;;;;4993361;28;20191;-57
2021/06/21 11:43:12;;;;;;;1.60;1.50;;;;;;;;;;4996429;28;20171;-59
2021/06/21 11:45:51;;;;;;;2.00;1.90;;;;;;;;;;4999534;28;20202;-59
2021/06/21 11:48:25;;;;;;;2.43;1.93;;;;;;;;;;4995669;28;20203;-58
2021/06/21 11:50:51;;;;;;;1.90;1.80;;;;;;;;;;4994794;28;20183;-58
2021/06/21 11:53:18;;;;;;;1.80;1.70;;;;;;;;;;4996590;28;20689;-57
2021/06/21 11:55:44;;;;;;;2.23;2.10;;;;;;;;;;4997106;28;20193;-58
2021/06/21 11:58:10;;;;;;;2.53;2.33;;;;;;;;;;4996922;28;20271;-58
2021/06/21 12:00:38;;;;;;;2.20;2.03;;;;;;;;;;4997021;28;20278;-56
2021/06/21 12:03:05;;;;;;;3.03;2.53;;;;;;;;;;4996495;28;20178;-57
2021/06/21 12:05:31;;;;;;;2.33;2.13;;;;;;;;;;4993428;28;20239;-57
2021/06/21 12:07:58;;;;;;;2.20;2.00;;;;;;;;;;4994823;28;21092;-57
2021/06/21 12:10:24;;;;;;;1.90;1.80;;;;;;;;;;4993078;28;20187;-58
2021/06/21 12:12:53;;;;;;;5.17;2.37;;;;;;;;;;4992140;28;20182;-57
2021/06/21 12:15:33;;;;;;;2.33;1.90;;;;;;;;;;4993764;28;20242;-58
2021/06/21 12:17:59;;;;;;;2.00;1.90;;;;;;;;;;4994806;28;20285;-57
2021/06/21 12:20:25;;;;;;;2.10;2.00;;;;;;;;;;4995649;28;20217;-58
2021/06/21 12:22:55;;;;;;;1.90;1.80;;;;;;;;;;4990034;28;20183;-57
2021/06/21 12:25:23;;;;;;;2.43;1.70;;;;;;;;;;4996567;28;20216;-57
2021/06/21 12:27:50;;;;;;;2.43;1.97;;;;;;;;;;4990700;28;20198;-58
2021/06/21 12:30:16;;;;;;;3.13;2.50;;;;;;;;;;4997770;28;20183;-57
2021/06/21 12:32:42;;;;;;;2.07;1.97;;;;;;;;;;4994938;28;20298;-58
2021/06/21 12:35:09;;;;;;;1.90;1.80;;;;;;;;;;4998932;28;20179;-56
2021/06/21 12:37:37;;;;;;;2.63;1.87;;;;;;;;;;4990442;28;20187;-58
2021/06/21 12:40:05;;;;;;;2.23;2.10;;;;;;;;;;5002502;28;20207;-57
2021/06/21 12:42:33;;;;;;;2.80;2.60;;;;;;;;;;4989774;28;20187;-56
2021/06/21 12:45:08;;;;;;;3.20;2.90;;;;;;;;;;4992161;28;20218;-58
2021/06/21 12:47:34;;;;;;;4.57;3.03;;;;;;;;;;5001786;28;20189;-57
2021/06/21 12:50:05;;;;;;;2.47;2.27;;;;;;;;;;4994978;28;20712;-58
2021/06/21 12:52:31;;;;;;;1.67;1.57;;;;;;;;;;4994473;28;20191;-57
2021/06/21 12:55:07;;;;;;;1.60;1.50;;;;;;;;;;4994910;28;20191;-56
2021/06/21 12:57:44;;;;;;;1.83;1.67;;;;;;;;;;4976440;28;20199;-56
2021/06/21 13:00:10;;;;;;;2.20;1.70;;;;;;;;;;4996036;28;20257;-58
2021/06/21 13:02:36;;;;;;;1.60;1.50;;;;;;;;;;4978512;28;20175;-58
2021/06/21 13:05:05;;;;;;;1.47;1.20;;;;;;;;;;4992412;28;20183;-59
2021/06/21 13:07:31;;;;;;;1.77;1.40;;;;;;;;;;4994441;28;20206;-57
2021/06/21 13:09:57;;;;;;;1.60;1.50;;;;;;;;;;4994316;28;20577;-58
2021/06/21 13:12:23;;;;;;;1.93;1.73;;;;;;;;;;4995076;28;20290;-58
2021/06/21 13:14:50;;;;;;;1.60;1.33;;;;;;;;;;4994095;28;20605;-58
2021/06/21 13:17:17;;;;;;;1.73;1.63;;;;;;;;;;4993242;28;20186;-58
2021/06/21 13:19:52;;;;;;;1.73;1.20;;;;;;;;;;4989536;28;20203;-60
2021/06/21 13:22:30;;;;;;;1.40;1.30;;;;;;;;;;4983342;28;20213;-57
2021/06/21 13:24:56;;;;;;;1.43;1.33;;;;;;;;;;4993015;28;20251;-58
2021/06/21 13:27:30;;;;;;;1.70;1.60;;;;;;;;;;4988407;28;20258;-56
2021/06/21 13:29:57;;;;;;;2.00;1.90;;;;;;;;;;4995087;28;20184;-57
2021/06/21 13:32:25;;;;;;;2.13;1.70;;;;;;;;;;4995890;28;20638;-59
2021/06/21 13:34:52;;;;;;;1.70;1.60;;;;;;;;;;4993579;28;20214;-58
2021/06/21 13:37:24;;;;;;;2.37;1.70;;;;;;;;;;4979363;28;20175;-58
2021/06/21 13:39:53;;;;;;;2.37;1.77;;;;;;;;;;4990434;28;20203;-58
2021/06/21 13:42:29;;;;;;;1.60;1.50;;;;;;;;;;4974672;28;20183;-57
2021/06/21 13:44:55;;;;;;;1.60;1.50;;;;;;;;;;4994187;28;20215;-57
2021/06/21 13:47:40;;;;;;;1.73;1.63;;;;;;;;;;4997104;28;20175;-59
2021/06/21 13:50:08;;;;;;;2.30;1.67;;;;;;;;;;4993841;28;20179;-59
2021/06/21 13:52:38;;;;;;;2.27;1.70;;;;;;;;;;4994700;28;20197;-58
2021/06/21 13:55:05;;;;;;;2.30;2.20;;;;;;;;;;4997091;28;20615;-57
2021/06/21 13:57:42;;;;;;;2.87;2.40;;;;;;;;;;4998765;28;20175;-58
2021/06/21 14:00:10;;;;;;;3.07;2.77;;;;;;;;;;4977427;28;20204;-58
2021/06/21 14:02:38;;;;;;;3.40;2.67;;;;;;;;;;4976824;28;20582;-58
2021/06/21 14:05:04;;;;;;;4.60;3.17;;;;;;;;;;4997702;28;20598;-57
2021/06/21 14:07:30;;;;;;;3.20;2.80;;;;;;;;;;4981727;28;20220;-57
2021/06/21 14:09:57;;;;;;;5.50;4.70;;;;;;;;;;4992167;28;20191;-59
2021/06/21 14:12:24;;;;;;;3.40;3.20;;;;;;;;;;4976936;28;20172;-58
2021/06/21 14:14:50;;;;;;;2.70;2.50;;;;;;;;;;4992605;28;20179;-59
2021/06/21 14:17:16;;;;;;;2.37;2.17;;;;;;;;;;4998096;28;20335;-60
2021/06/21 14:19:42;;;;;;;2.73;2.37;;;;;;;;;;4993702;28;20693;-59
2021/06/21 14:22:08;;;;;;;2.87;2.67;;;;;;;;;;4989089;28;20193;-57
2021/06/21 14:24:34;;;;;;;3.90;2.20;;;;;;;;;;4993970;28;20238;-58
2021/06/21 14:27:00;;;;;;;2.67;2.47;;;;;;;;;;4994107;28;20234;-60
2021/06/21 14:29:27;;;;;;;2.90;2.70;;;;;;;;;;4995460;28;20198;-57
2021/06/21 14:31:53;;;;;;;3.90;3.07;;;;;;;;;;4994192;28;20265;-58
2021/06/21 14:34:19;;;;;;;3.43;3.13;;;;;;;;;;4989834;28;20266;-59
2021/06/21 14:36:46;;;;;;;6.50;4.20;;;;;;;;;;4993392;28;20201;-58
2021/06/21 14:39:12;;;;;;;4.60;3.10;;;;;;;;;;4985007;28;20187;-57
2021/06/21 14:41:38;;;;;;;3.67;3.30;;;;;;;;;;4977312;28;20175;-57
2021/06/21 14:44:04;;;;;;;3.47;3.17;;;;;;;;;;4994336;28;20202;-60
2021/06/21 14:46:31;;;;;;;5.10;3.77;;;;;;;;;;4993147;28;20200;-58
2021/06/21 14:48:57;;;;;;;6.30;4.00;;;;;;;;;;4987722;28;20267;-59
2021/06/21 14:51:24;;;;;;;5.37;4.10;;;;;;;;;;4974804;28;20176;-57